Time;durP1;ratioP1;P1;durP2;ratioP2;P2;SDS_P1;SDS_P2;PMS_P1;PMS_P2;Temp;Humidity;BMP_temperature;BMP_pressure;BME280_temperature;BME280_humidity;BME280_pressure;Samples;Min_cycle;Max_cycle;Signal;HPM_P1;HPM_P2
2024/03/07 00:00:30;;;;;;;40.35;29.73;;;5.70;99.90;;;;;;2083770;28;20021;-68
2024/03/07 00:01:31;;;;;;;43.10;31.40;;;5.70;99.90;;;;;;2074812;28;20029;-68
2024/03/07 00:02:33;;;;;;;47.08;31.73;;;5.70;99.90;;;;;;2079137;28;20026;-67
2024/03/07 00:03:34;;;;;;;43.50;30.58;;;5.70;99.90;;;;;;2083700;28;20049;-68
2024/03/07 00:04:36;;;;;;;44.90;30.48;;;5.70;99.90;;;;;;2084953;28;20040;-68
2024/03/07 00:05:36;;;;;;;44.22;30.13;;;5.60;99.90;;;;;;2077072;28;20152;-69
2024/03/07 00:06:37;;;;;;;45.28;30.80;;;5.70;99.90;;;;;;2075940;28;20021;-67
2024/03/07 00:07:37;;;;;;;44.78;31.23;;;5.70;99.90;;;;;;2085547;28;20036;-68
2024/03/07 00:08:38;;;;;;;42.20;31.13;;;5.70;99.90;;;;;;2085915;28;20021;-67
2024/03/07 00:09:39;;;;;;;44.60;31.55;;;5.60;99.90;;;;;;2084354;28;20112;-68
2024/03/07 00:10:39;;;;;;;44.95;31.35;;;5.60;99.90;;;;;;2084982;28;20025;-68
2024/03/07 00:11:40;;;;;;;44.42;30.77;;;5.60;99.90;;;;;;2083583;28;20057;-73
2024/03/07 00:12:41;;;;;;;45.88;31.17;;;5.60;99.90;;;;;;2075215;28;20092;-74
2024/03/07 00:13:42;;;;;;;45.70;31.40;;;5.60;99.90;;;;;;2076984;28;20931;-73
2024/03/07 00:14:43;;;;;;;42.15;29.85;;;5.50;99.90;;;;;;2086019;28;20037;-72
2024/03/07 00:15:43;;;;;;;49.65;32.30;;;5.50;99.90;;;;;;2084741;28;20064;-73
2024/03/07 00:16:44;;;;;;;43.72;29.40;;;5.50;99.90;;;;;;2086031;28;20038;-73
2024/03/07 00:17:45;;;;;;;50.25;33.00;;;5.50;99.90;;;;;;2084728;28;20064;-68
2024/03/07 00:18:45;;;;;;;49.60;31.58;;;5.50;99.90;;;;;;2086385;28;20037;-69
2024/03/07 00:19:47;;;;;;;47.90;32.08;;;5.50;99.90;;;;;;2076342;28;20552;-68
2024/03/07 00:20:48;;;;;;;45.20;31.42;;;5.50;99.90;;;;;;2075409;28;20134;-68
2024/03/07 00:21:48;;;;;;;48.38;35.08;;;5.50;99.90;;;;;;2082984;28;20111;-68
2024/03/07 00:22:50;;;;;;;42.10;30.23;;;5.50;99.90;;;;;;2074648;28;20671;-68
2024/03/07 00:23:50;;;;;;;50.10;32.90;;;5.40;99.90;;;;;;2077988;28;20032;-69
2024/03/07 00:24:51;;;;;;;38.80;29.42;;;5.40;99.90;;;;;;2084227;28;20028;-69
2024/03/07 00:25:51;;;;;;;43.15;30.92;;;5.40;99.90;;;;;;2084129;28;20096;-68
2024/03/07 00:26:52;;;;;;;44.47;31.08;;;5.40;99.90;;;;;;2085387;28;20033;-68
2024/03/07 00:27:53;;;;;;;47.80;32.30;;;5.40;99.90;;;;;;2082805;28;20091;-68
2024/03/07 00:28:54;;;;;;;39.25;28.23;;;5.40;99.90;;;;;;2085045;28;20496;-67
2024/03/07 00:29:54;;;;;;;47.05;31.65;;;5.40;99.90;;;;;;2085376;28;20732;-68
2024/03/07 00:30:55;;;;;;;48.25;31.88;;;5.40;99.90;;;;;;2083897;28;20116;-67
2024/03/07 00:31:55;;;;;;;43.45;28.77;;;5.30;99.90;;;;;;2084560;28;20029;-68
2024/03/07 00:32:57;;;;;;;45.03;31.48;;;5.30;99.90;;;;;;2085175;28;20025;-68
2024/03/07 00:33:58;;;;;;;51.20;33.35;;;5.30;99.90;;;;;;2085841;28;20033;-67
2024/03/07 00:34:59;;;;;;;45.83;32.17;;;5.30;99.90;;;;;;2088272;28;20079;-67
2024/03/07 00:35:59;;;;;;;48.20;33.08;;;5.30;99.90;;;;;;2085271;28;20021;-67
2024/03/07 00:37:00;;;;;;;47.85;31.83;;;5.30;99.90;;;;;;2085380;28;20025;-68
2024/03/07 00:38:01;;;;;;;42.88;30.88;;;5.30;99.90;;;;;;2084607;28;20028;-68
2024/03/07 00:39:01;;;;;;;47.20;32.67;;;5.20;99.90;;;;;;2086890;28;20061;-68
2024/03/07 00:40:03;;;;;;;42.60;30.67;;;5.20;99.90;;;;;;2084282;28;20036;-68
2024/03/07 00:41:04;;;;;;;43.65;31.10;;;5.20;99.90;;;;;;2079575;28;20044;-67
2024/03/07 00:42:05;;;;;;;41.72;30.02;;;5.20;99.90;;;;;;2077279;28;20418;-68
2024/03/07 00:43:06;;;;;;;42.33;29.85;;;5.20;99.90;;;;;;2086904;28;20041;-68
2024/03/07 00:44:08;;;;;;;45.08;31.23;;;5.20;99.90;;;;;;2078042;28;20025;-67
2024/03/07 00:45:09;;;;;;;42.35;29.75;;;5.20;99.90;;;;;;2079133;28;20037;-67
2024/03/07 00:46:10;;;;;;;46.05;30.90;;;5.20;99.90;;;;;;2087352;28;20474;-68
2024/03/07 00:47:11;;;;;;;49.70;33.63;;;5.20;99.90;;;;;;2086297;28;20088;-67
2024/03/07 00:48:12;;;;;;;48.95;32.05;;;5.20;99.90;;;;;;2085944;28;20029;-67
2024/03/07 00:49:12;;;;;;;49.38;32.60;;;5.10;99.90;;;;;;2087597;28;20035;-67
2024/03/07 00:50:13;;;;;;;44.88;30.70;;;5.10;99.90;;;;;;2085798;28;20438;-67
2024/03/07 00:51:14;;;;;;;45.20;30.77;;;5.10;99.90;;;;;;2086946;28;20029;-68
2024/03/07 00:52:15;;;;;;;43.53;30.17;;;5.10;99.90;;;;;;2087078;28;20021;-68
2024/03/07 00:53:16;;;;;;;46.38;31.63;;;5.10;99.90;;;;;;2088343;28;20948;-68
2024/03/07 00:54:16;;;;;;;45.63;30.73;;;5.10;99.90;;;;;;2087188;28;20025;-67
2024/03/07 00:55:17;;;;;;;42.55;29.63;;;5.10;99.90;;;;;;2085017;28;20112;-67
2024/03/07 00:56:18;;;;;;;43.40;30.17;;;5.10;99.90;;;;;;2084700;28;20112;-68
2024/03/07 00:57:19;;;;;;;41.70;30.00;;;5.00;99.90;;;;;;2085185;28;20265;-67
2024/03/07 00:58:20;;;;;;;47.75;32.30;;;5.00;99.90;;;;;;2085421;28;20040;-68
2024/03/07 00:59:20;;;;;;;42.85;31.13;;;5.00;99.90;;;;;;2084641;28;20445;-68
2024/03/07 01:00:21;;;;;;;48.25;30.90;;;5.00;99.90;;;;;;2085422;28;20035;-68
2024/03/07 01:01:22;;;;;;;43.90;29.50;;;5.00;99.90;;;;;;2085228;28;20477;-68
2024/03/07 01:02:22;;;;;;;45.90;30.58;;;5.00;99.90;;;;;;2085479;28;20047;-69
2024/03/07 01:03:24;;;;;;;43.55;30.98;;;5.00;99.90;;;;;;2083937;28;20104;-68
2024/03/07 01:04:30;;;;;;;44.53;29.60;;;4.90;99.90;;;;;;2086212;28;20120;-68
2024/03/07 01:05:31;;;;;;;46.05;30.02;;;4.90;99.90;;;;;;2086658;28;20013;-68
2024/03/07 01:06:32;;;;;;;38.63;28.23;;;4.90;99.90;;;;;;2084919;28;20424;-68
2024/03/07 01:07:33;;;;;;;41.15;29.75;;;4.90;99.90;;;;;;2086013;28;20036;-67
2024/03/07 01:08:35;;;;;;;41.97;29.92;;;4.90;99.90;;;;;;2086024;28;20033;-67
2024/03/07 01:09:35;;;;;;;41.25;30.42;;;4.90;99.90;;;;;;2084751;28;20037;-68
2024/03/07 01:10:36;;;;;;;39.30;29.05;;;4.90;99.90;;;;;;2084023;28;20021;-68
2024/03/07 01:11:37;;;;;;;45.58;30.90;;;4.80;99.90;;;;;;2084156;28;20377;-68
2024/03/07 01:12:40;;;;;;;40.95;28.80;;;4.80;99.90;;;;;;2083590;28;20068;-67
2024/03/07 01:13:41;;;;;;;43.95;29.95;;;4.80;99.90;;;;;;2085433;28;20488;-68
2024/03/07 01:14:42;;;;;;;41.97;29.23;;;4.80;99.90;;;;;;2085477;28;20033;-67
2024/03/07 01:15:42;;;;;;;43.67;31.15;;;4.80;99.90;;;;;;2085008;28;20044;-70
2024/03/07 01:16:47;;;;;;;40.35;28.95;;;4.80;99.90;;;;;;2077509;28;20026;-73
2024/03/07 01:17:47;;;;;;;44.67;30.98;;;4.80;99.90;;;;;;2078786;28;20156;-73
2024/03/07 01:18:49;;;;;;;45.78;30.80;;;4.80;99.90;;;;;;2079125;28;20029;-67
2024/03/07 01:19:49;;;;;;;43.40;30.30;;;4.80;99.90;;;;;;2078384;28;20422;-67
2024/03/07 01:20:50;;;;;;;39.28;28.00;;;4.80;99.90;;;;;;2083297;28;20075;-68
2024/03/07 01:21:50;;;;;;;43.03;29.77;;;4.70;99.90;;;;;;2086081;28;20535;-68
2024/03/07 01:22:53;;;;;;;45.53;31.30;;;4.70;99.90;;;;;;2085507;28;20071;-67
2024/03/07 01:23:54;;;;;;;42.55;30.23;;;4.70;99.90;;;;;;2085386;28;20410;-68
2024/03/07 01:24:55;;;;;;;45.88;32.10;;;4.70;99.90;;;;;;2086214;28;20029;-67
2024/03/07 01:25:58;;;;;;;41.45;29.13;;;4.70;99.90;;;;;;2083821;28;20458;-67
2024/03/07 01:26:59;;;;;;;45.25;30.38;;;4.70;99.90;;;;;;2085288;28;20030;-68
2024/03/07 01:28:06;;;;;;;44.95;30.50;;;4.70;99.90;;;;;;2084659;28;20026;-68
2024/03/07 01:29:07;;;;;;;42.58;29.92;;;4.70;99.90;;;;;;2084991;28;20037;-68
2024/03/07 01:30:08;;;;;;;39.53;28.55;;;4.70;99.90;;;;;;2086829;28;20059;-68
2024/03/07 01:31:12;;;;;;;42.95;28.20;;;4.60;99.90;;;;;;2086070;28;20053;-68
2024/03/07 01:32:13;;;;;;;44.55;30.02;;;4.70;99.90;;;;;;2085322;28;20029;-68
2024/03/07 01:33:13;;;;;;;40.10;29.17;;;4.60;99.90;;;;;;2086043;28;20025;-68
2024/03/07 01:34:14;;;;;;;42.55;30.58;;;4.60;99.90;;;;;;2085850;28;20488;-67
2024/03/07 01:35:15;;;;;;;39.55;29.27;;;4.60;99.90;;;;;;2084965;28;20033;-68
2024/03/07 01:36:16;;;;;;;42.65;30.58;;;4.60;99.90;;;;;;2079584;28;20127;-68
2024/03/07 01:37:19;;;;;;;46.72;31.67;;;4.60;99.90;;;;;;2078767;28;20580;-68
2024/03/07 01:38:20;;;;;;;41.80;29.67;;;4.60;99.90;;;;;;2085401;28;20104;-73
2024/03/07 01:39:20;;;;;;;40.30;28.52;;;4.50;99.90;;;;;;2086638;28;20030;-73
2024/03/07 01:40:21;;;;;;;41.63;29.15;;;4.50;99.90;;;;;;2085639;28;20025;-72
2024/03/07 01:41:22;;;;;;;41.72;30.17;;;4.50;99.90;;;;;;2083172;28;20060;-72
2024/03/07 01:42:22;;;;;;;40.08;29.27;;;4.50;99.90;;;;;;2085038;28;20022;-73
2024/03/07 01:43:23;;;;;;;44.67;29.83;;;4.50;99.90;;;;;;2079078;28;20444;-68
2024/03/07 01:44:23;;;;;;;39.17;29.13;;;4.50;99.90;;;;;;2081070;28;20057;-68
2024/03/07 01:45:24;;;;;;;36.63;28.10;;;4.50;99.90;;;;;;2085715;28;20114;-68
2024/03/07 01:46:25;;;;;;;45.35;30.10;;;4.50;99.90;;;;;;2084504;28;20025;-67
2024/03/07 01:47:25;;;;;;;43.42;29.73;;;4.50;99.90;;;;;;2079341;28;20033;-67
2024/03/07 01:48:30;;;;;;;42.58;29.67;;;4.50;99.90;;;;;;2081019;28;20052;-67
2024/03/07 01:49:32;;;;;;;42.78;31.20;;;4.50;99.90;;;;;;2086717;28;20518;-72
2024/03/07 01:50:33;;;;;;;49.53;32.13;;;4.40;99.90;;;;;;2087001;28;20408;-73
2024/03/07 01:51:38;;;;;;;43.70;31.27;;;4.40;99.90;;;;;;2085089;28;20606;-72
2024/03/07 01:52:46;;;;;;;42.60;29.13;;;4.40;99.90;;;;;;2085117;28;20611;-73
2024/03/07 01:53:47;;;;;;;41.17;30.17;;;4.50;99.90;;;;;;2084883;28;20025;-73
2024/03/07 01:54:48;;;;;;;43.70;29.55;;;4.40;99.90;;;;;;2083293;28;20108;-73
2024/03/07 01:55:50;;;;;;;38.50;27.60;;;4.40;99.90;;;;;;2086240;28;20009;-72
2024/03/07 01:56:51;;;;;;;47.20;31.83;;;4.40;99.90;;;;;;2085306;28;20029;-73
2024/03/07 01:57:58;;;;;;;42.95;30.58;;;4.40;99.90;;;;;;2078436;28;20028;-72
2024/03/07 01:59:05;;;;;;;50.53;33.40;;;4.40;99.90;;;;;;2064077;28;20456;-73
2024/03/07 02:00:06;;;;;;;43.83;31.23;;;4.40;99.90;;;;;;2073676;28;20033;-71
2024/03/07 02:01:08;;;;;;;36.40;27.58;;;4.40;99.90;;;;;;2080132;28;20026;-73
2024/03/07 02:02:08;;;;;;;43.60;32.03;;;4.40;99.90;;;;;;2078746;28;20077;-73
2024/03/07 02:03:09;;;;;;;44.75;30.98;;;4.40;99.90;;;;;;2085093;28;20175;-73
2024/03/07 02:04:14;;;;;;;44.83;30.90;;;4.40;99.90;;;;;;2083405;28;20116;-73
2024/03/07 02:05:15;;;;;;;46.78;32.38;;;4.40;99.90;;;;;;2084449;28;20100;-71
2024/03/07 02:06:16;;;;;;;42.05;28.88;;;4.30;99.90;;;;;;2083983;28;20079;-73
2024/03/07 02:07:19;;;;;;;44.90;30.20;;;4.30;99.90;;;;;;2082658;28;20102;-73
2024/03/07 02:08:20;;;;;;;43.25;28.08;;;4.40;99.90;;;;;;2086312;28;20026;-73
2024/03/07 02:09:21;;;;;;;43.17;28.95;;;4.30;99.90;;;;;;2083530;28;20025;-73
2024/03/07 02:10:21;;;;;;;38.90;27.92;;;4.30;99.90;;;;;;2084741;28;20017;-72
2024/03/07 02:11:24;;;;;;;37.78;27.70;;;4.30;99.90;;;;;;2084438;28;20025;-72
2024/03/07 02:12:24;;;;;;;41.78;28.63;;;4.30;99.90;;;;;;2086632;28;20398;-73
2024/03/07 02:13:25;;;;;;;45.55;30.95;;;4.30;99.90;;;;;;2083833;28;20044;-72
2024/03/07 02:14:26;;;;;;;41.72;30.00;;;4.30;99.90;;;;;;2087442;28;20021;-73
2024/03/07 02:15:27;;;;;;;38.28;28.50;;;4.30;99.90;;;;;;2086637;28;20026;-73
2024/03/07 02:16:28;;;;;;;42.13;29.70;;;4.20;99.90;;;;;;2086094;28;20473;-73
2024/03/07 02:17:29;;;;;;;40.30;27.88;;;4.20;99.90;;;;;;2083608;28;20029;-67
2024/03/07 02:18:30;;;;;;;44.97;30.27;;;4.20;99.90;;;;;;2083632;28;20059;-67
2024/03/07 02:19:33;;;;;;;43.90;31.45;;;4.20;99.90;;;;;;2084652;28;20532;-68
2024/03/07 02:20:36;;;;;;;37.92;29.45;;;4.20;99.90;;;;;;2085378;28;20025;-68
2024/03/07 02:21:37;;;;;;;45.60;32.38;;;4.20;99.90;;;;;;2083282;28;20778;-67
2024/03/07 02:22:38;;;;;;;40.95;30.05;;;4.20;99.90;;;;;;2084732;28;20378;-69
2024/03/07 02:23:38;;;;;;;42.38;29.45;;;4.20;99.90;;;;;;2085505;28;20031;-68
2024/03/07 02:24:39;;;;;;;44.63;30.63;;;4.20;99.90;;;;;;2085561;28;20041;-68
2024/03/07 02:25:39;;;;;;;43.85;29.80;;;4.20;99.90;;;;;;2086459;28;20065;-69
2024/03/07 02:26:40;;;;;;;42.63;30.45;;;4.20;99.90;;;;;;2085746;28;20371;-67
2024/03/07 02:27:45;;;;;;;42.17;28.85;;;4.20;99.90;;;;;;2084650;28;20032;-68
2024/03/07 02:28:45;;;;;;;37.95;29.15;;;4.10;99.90;;;;;;2086110;28;20025;-67
2024/03/07 02:29:47;;;;;;;36.90;27.80;;;4.10;99.90;;;;;;2080447;28;20029;-67
2024/03/07 02:30:47;;;;;;;39.83;28.77;;;4.10;99.90;;;;;;2079389;28;20641;-69
2024/03/07 02:31:48;;;;;;;41.72;29.00;;;4.10;99.90;;;;;;2084948;28;20422;-72
2024/03/07 02:32:54;;;;;;;40.63;28.80;;;4.10;99.90;;;;;;2083048;28;20037;-72
2024/03/07 02:33:55;;;;;;;40.97;28.38;;;4.10;99.90;;;;;;2085610;28;20035;-72
2024/03/07 02:34:55;;;;;;;40.25;28.38;;;4.10;99.90;;;;;;2078988;28;20030;-72
2024/03/07 02:35:56;;;;;;;40.85;29.52;;;4.10;99.90;;;;;;2076800;28;20080;-72
2024/03/07 02:36:57;;;;;;;42.13;28.50;;;4.10;99.90;;;;;;2083853;28;20021;-72
2024/03/07 02:37:57;;;;;;;37.78;27.67;;;4.10;99.90;;;;;;2086584;28;20163;-72
2024/03/07 02:38:59;;;;;;;39.13;27.10;;;4.00;99.90;;;;;;2085161;28;20043;-72
2024/03/07 02:39:59;;;;;;;38.25;28.90;;;4.10;99.90;;;;;;2086536;28;20060;-72
2024/03/07 02:41:00;;;;;;;37.55;28.08;;;4.00;99.90;;;;;;2083512;28;20104;-72
2024/03/07 02:42:01;;;;;;;45.63;29.85;;;4.00;99.90;;;;;;2086153;28;20460;-72
2024/03/07 02:43:04;;;;;;;43.13;29.83;;;4.00;99.90;;;;;;2085056;28;20052;-72
2024/03/07 02:44:05;;;;;;;41.67;30.10;;;4.00;99.90;;;;;;2085222;28;20049;-69
2024/03/07 02:45:06;;;;;;;38.10;29.23;;;4.00;99.90;;;;;;2085223;28;20029;-68
2024/03/07 02:46:06;;;;;;;45.05;29.90;;;4.00;99.90;;;;;;2082741;28;20026;-68
2024/03/07 02:47:08;;;;;;;39.13;28.45;;;4.00;99.90;;;;;;2085414;28;20040;-68
2024/03/07 02:48:09;;;;;;;39.22;27.55;;;4.00;99.90;;;;;;2084044;28;20246;-68
2024/03/07 02:49:10;;;;;;;39.17;28.45;;;4.00;99.90;;;;;;2085521;28;20115;-67
2024/03/07 02:50:14;;;;;;;39.60;28.23;;;3.90;99.90;;;;;;2085666;28;20025;-68
2024/03/07 02:51:15;;;;;;;37.90;27.00;;;3.90;99.90;;;;;;2086410;28;20045;-68
2024/03/07 02:52:18;;;;;;;40.15;30.08;;;3.90;99.90;;;;;;2084733;28;20033;-68
2024/03/07 02:53:19;;;;;;;38.75;28.98;;;3.90;99.90;;;;;;2085545;28;20032;-68
2024/03/07 02:54:25;;;;;;;39.05;27.63;;;3.90;99.90;;;;;;2083336;28;20108;-68
2024/03/07 02:55:28;;;;;;;37.00;27.27;;;3.90;99.90;;;;;;2083978;28;20079;-69
2024/03/07 02:56:29;;;;;;;39.35;28.60;;;3.90;99.90;;;;;;2085380;28;20021;-68
2024/03/07 02:57:30;;;;;;;37.42;27.35;;;3.80;99.90;;;;;;2084443;28;20060;-68
2024/03/07 02:58:30;;;;;;;39.80;28.83;;;3.90;99.90;;;;;;2084057;28;20384;-68
2024/03/07 02:59:32;;;;;;;40.08;29.15;;;3.90;99.90;;;;;;2084740;28;20028;-68
2024/03/07 03:00:32;;;;;;;38.95;28.27;;;3.80;99.90;;;;;;2084732;28;20022;-68
2024/03/07 03:01:33;;;;;;;41.38;27.25;;;3.80;99.90;;;;;;2083175;28;20026;-67
2024/03/07 03:02:34;;;;;;;39.08;27.65;;;3.80;99.90;;;;;;2083751;28;20516;-69
2024/03/07 03:03:34;;;;;;;37.22;27.10;;;3.80;99.90;;;;;;2076006;28;20502;-67
2024/03/07 03:04:35;;;;;;;40.53;28.45;;;3.80;99.90;;;;;;2074166;28;20092;-68
2024/03/07 03:05:35;;;;;;;36.75;25.52;;;3.80;99.90;;;;;;2087696;28;20104;-68
2024/03/07 03:06:36;;;;;;;37.58;28.00;;;3.80;99.90;;;;;;2084062;28;20022;-68
2024/03/07 03:07:37;;;;;;;39.30;29.95;;;3.80;99.90;;;;;;2085983;28;20107;-67
2024/03/07 03:08:38;;;;;;;37.58;27.40;;;3.80;99.90;;;;;;2085052;28;20026;-67
2024/03/07 03:09:43;;;;;;;37.42;27.40;;;3.80;99.90;;;;;;2083480;28;20029;-68
2024/03/07 03:10:44;;;;;;;41.35;29.10;;;3.80;99.90;;;;;;2082317;28;20036;-67
2024/03/07 03:11:44;;;;;;;38.95;28.23;;;3.70;99.90;;;;;;2083749;28;20072;-68
2024/03/07 03:12:45;;;;;;;40.00;29.35;;;3.70;99.90;;;;;;2086629;28;20108;-68
2024/03/07 03:13:49;;;;;;;33.92;26.17;;;3.70;99.90;;;;;;2083609;28;20357;-68
2024/03/07 03:14:57;;;;;;;38.38;27.20;;;3.70;99.90;;;;;;2084053;28;20524;-68
2024/03/07 03:16:04;;;;;;;39.55;28.02;;;3.70;99.90;;;;;;2085138;28;20120;-68
2024/03/07 03:17:08;;;;;;;41.75;30.15;;;3.70;99.90;;;;;;2083057;28;20048;-68
2024/03/07 03:18:09;;;;;;;36.17;27.35;;;3.70;99.90;;;;;;2084159;28;20692;-67
2024/03/07 03:19:10;;;;;;;38.20;27.30;;;3.70;99.90;;;;;;2085036;28;20037;-68
2024/03/07 03:20:24;;;;;;;37.03;28.05;;;3.70;99.90;;;;;;2083304;28;20028;-68
2024/03/07 03:21:24;;;;;;;36.83;27.58;;;3.60;99.90;;;;;;2081798;28;20057;-67
2024/03/07 03:22:26;;;;;;;34.67;27.02;;;3.60;99.90;;;;;;2068273;28;20038;-68
2024/03/07 03:23:27;;;;;;;35.83;27.75;;;3.60;99.90;;;;;;2067628;28;20053;-68
2024/03/07 03:24:28;;;;;;;38.03;27.23;;;3.60;99.90;;;;;;2072610;28;20025;-67
2024/03/07 03:25:29;;;;;;;39.38;27.23;;;3.60;99.90;;;;;;2069079;28;20386;-67
2024/03/07 03:26:31;;;;;;;38.53;27.80;;;3.60;99.90;;;;;;2066328;28;20030;-67
2024/03/07 03:27:32;;;;;;;35.35;26.48;;;3.60;99.90;;;;;;2069774;28;20022;-67
2024/03/07 03:28:32;;;;;;;39.55;28.88;;;3.60;99.90;;;;;;2068061;28;20494;-67
2024/03/07 03:29:34;;;;;;;38.60;27.67;;;3.60;99.90;;;;;;2069328;28;20030;-67
2024/03/07 03:30:36;;;;;;;35.75;26.10;;;3.60;99.90;;;;;;2069943;28;20021;-68
2024/03/07 03:31:37;;;;;;;39.38;28.17;;;3.50;99.90;;;;;;2067581;28;20038;-68
2024/03/07 03:32:38;;;;;;;37.40;28.75;;;3.60;99.90;;;;;;2058709;28;20029;-67
2024/03/07 03:33:38;;;;;;;38.80;26.02;;;3.60;99.90;;;;;;2059735;28;20069;-67
2024/03/07 03:34:39;;;;;;;36.15;26.67;;;3.50;99.90;;;;;;2068511;28;20038;-67
2024/03/07 03:35:40;;;;;;;35.53;25.80;;;3.50;99.90;;;;;;2067350;28;20076;-67
2024/03/07 03:36:40;;;;;;;41.50;29.70;;;3.50;99.90;;;;;;2062488;28;20477;-67
2024/03/07 03:37:44;;;;;;;41.22;28.73;;;3.50;99.90;;;;;;2063490;28;20244;-68
2024/03/07 03:38:44;;;;;;;43.50;29.13;;;3.50;99.90;;;;;;2067853;28;20097;-68
2024/03/07 03:39:47;;;;;;;40.63;29.63;;;3.50;99.90;;;;;;2067923;28;20038;-67
2024/03/07 03:40:47;;;;;;;40.05;29.52;;;3.50;99.90;;;;;;2063382;28;20666;-68
2024/03/07 03:41:48;;;;;;;36.25;27.23;;;3.50;99.90;;;;;;2064220;28;20390;-68
2024/03/07 03:42:48;;;;;;;42.97;29.58;;;3.50;99.90;;;;;;2066158;28;20491;-68
2024/03/07 03:43:53;;;;;;;39.28;28.45;;;3.50;99.90;;;;;;2069686;28;20507;-67
2024/03/07 03:44:53;;;;;;;38.05;28.33;;;3.50;99.90;;;;;;2067546;28;20034;-68
2024/03/07 03:45:54;;;;;;;39.15;29.17;;;3.40;99.90;;;;;;2070089;28;20105;-68
2024/03/07 03:46:54;;;;;;;39.03;29.25;;;3.50;99.90;;;;;;2067903;28;20387;-67
2024/03/07 03:47:55;;;;;;;38.05;26.85;;;3.40;99.90;;;;;;2068655;28;20080;-67
2024/03/07 03:48:55;;;;;;;39.85;29.33;;;3.40;99.90;;;;;;2068585;28;20040;-67
2024/03/07 03:49:57;;;;;;;39.75;28.10;;;3.40;99.90;;;;;;2068098;28;20493;-67
2024/03/07 03:50:57;;;;;;;37.67;27.05;;;3.40;99.90;;;;;;2059274;28;20553;-67
2024/03/07 03:51:59;;;;;;;40.95;27.35;;;3.40;99.90;;;;;;2062246;28;20072;-67
2024/03/07 03:53:02;;;;;;;41.95;28.25;;;3.40;99.90;;;;;;2069257;28;20041;-67
2024/03/07 03:54:02;;;;;;;41.05;28.33;;;3.40;99.90;;;;;;2068819;28;20141;-67
2024/03/07 03:55:07;;;;;;;35.10;25.83;;;3.40;99.90;;;;;;2060414;28;20034;-68
2024/03/07 03:56:13;;;;;;;35.47;26.48;;;3.40;99.90;;;;;;2053974;28;20118;-68
2024/03/07 03:57:13;;;;;;;38.38;28.13;;;3.40;99.90;;;;;;2060659;28;20030;-67
2024/03/07 03:58:17;;;;;;;39.80;28.20;;;3.30;99.90;;;;;;2068332;28;20572;-68
2024/03/07 03:59:18;;;;;;;40.03;28.83;;;3.30;99.90;;;;;;2066798;28;20117;-68
2024/03/07 04:00:18;;;;;;;37.45;27.00;;;3.30;99.90;;;;;;2068817;28;20030;-67
2024/03/07 04:01:19;;;;;;;39.83;30.60;;;3.30;99.90;;;;;;2068351;28;20080;-67
2024/03/07 04:02:20;;;;;;;40.00;28.08;;;3.30;99.90;;;;;;2069659;28;20026;-68
2024/03/07 04:03:21;;;;;;;38.75;27.52;;;3.30;99.90;;;;;;2068694;28;20030;-68
2024/03/07 04:04:21;;;;;;;36.63;27.08;;;3.30;99.90;;;;;;2069394;28;20027;-68
2024/03/07 04:05:22;;;;;;;40.15;30.20;;;3.30;99.90;;;;;;2067757;28;20034;-68
2024/03/07 04:06:23;;;;;;;40.55;29.60;;;3.30;99.90;;;;;;2069858;28;20018;-67
2024/03/07 04:07:24;;;;;;;36.70;27.65;;;3.20;99.90;;;;;;2068732;28;20022;-68
2024/03/07 04:08:24;;;;;;;37.83;27.73;;;3.30;99.90;;;;;;2067431;28;20037;-68
2024/03/07 04:09:26;;;;;;;36.72;28.25;;;3.30;99.90;;;;;;2070447;28;20045;-68
2024/03/07 04:10:26;;;;;;;35.67;26.63;;;3.30;99.90;;;;;;2063142;28;20114;-67
2024/03/07 04:11:27;;;;;;;37.95;26.67;;;3.30;99.90;;;;;;2065210;28;20058;-68
2024/03/07 04:12:27;;;;;;;41.13;28.58;;;3.20;99.90;;;;;;2069062;28;20017;-68
2024/03/07 04:13:28;;;;;;;40.63;26.85;;;3.20;99.90;;;;;;2069764;28;20558;-68
2024/03/07 04:14:32;;;;;;;36.53;27.25;;;3.20;99.90;;;;;;2068113;28;20091;-67
2024/03/07 04:15:33;;;;;;;35.28;27.23;;;3.20;99.90;;;;;;2066684;28;20670;-67
2024/03/07 04:16:34;;;;;;;36.20;28.30;;;3.20;99.90;;;;;;2070106;28;20340;-68
2024/03/07 04:17:37;;;;;;;36.75;27.20;;;3.20;99.90;;;;;;2069358;28;20397;-67
2024/03/07 04:18:41;;;;;;;38.22;27.83;;;3.20;99.90;;;;;;2070513;28;20026;-68
2024/03/07 04:19:42;;;;;;;39.00;28.30;;;3.20;99.90;;;;;;2071501;28;20081;-67
2024/03/07 04:20:44;;;;;;;36.33;26.98;;;3.20;99.90;;;;;;2069057;28;20066;-67
2024/03/07 04:21:44;;;;;;;36.53;28.55;;;3.20;99.90;;;;;;2063716;28;20507;-67
2024/03/07 04:22:45;;;;;;;36.80;27.60;;;3.20;99.90;;;;;;2070553;28;20100;-67
2024/03/07 04:23:46;;;;;;;41.38;28.20;;;3.20;99.90;;;;;;2077384;28;20037;-67
2024/03/07 04:24:53;;;;;;;38.90;27.85;;;3.20;99.90;;;;;;2077196;28;20382;-67
2024/03/07 04:25:56;;;;;;;46.72;30.90;;;3.20;99.90;;;;;;2078767;28;20049;-67
2024/03/07 04:26:56;;;;;;;40.90;29.73;;;3.10;99.90;;;;;;2077992;28;20029;-67
2024/03/07 04:27:58;;;;;;;43.58;30.75;;;3.10;99.90;;;;;;2076925;28;20053;-67
2024/03/07 04:28:58;;;;;;;41.03;30.27;;;3.10;99.90;;;;;;2076952;28;20025;-67
2024/03/07 04:29:59;;;;;;;38.97;29.30;;;3.10;99.90;;;;;;2079675;28;20110;-67
2024/03/07 04:31:00;;;;;;;42.25;30.15;;;3.10;99.90;;;;;;2078351;28;20049;-68
2024/03/07 04:32:01;;;;;;;43.63;31.10;;;3.10;99.90;;;;;;2078906;28;20031;-67
2024/03/07 04:33:02;;;;;;;41.58;29.88;;;3.10;99.90;;;;;;2078067;28;20026;-67
2024/03/07 04:34:03;;;;;;;38.30;28.45;;;3.10;99.90;;;;;;2075479;28;20044;-67
2024/03/07 04:35:07;;;;;;;38.63;27.45;;;3.10;99.90;;;;;;2077496;28;20030;-67
2024/03/07 04:36:08;;;;;;;44.78;31.65;;;3.10;99.90;;;;;;2077964;28;20034;-67
2024/03/07 04:37:09;;;;;;;38.80;28.13;;;3.00;99.90;;;;;;2077490;28;20072;-68
2024/03/07 04:38:11;;;;;;;47.28;32.28;;;3.00;99.90;;;;;;2077162;28;20038;-67
2024/03/07 04:39:22;;;;;;;37.15;26.98;;;3.00;99.90;;;;;;2076356;28;20088;-67
2024/03/07 04:40:22;;;;;;;40.92;29.38;;;3.00;99.90;;;;;;2079364;28;20017;-67
2024/03/07 04:41:28;;;;;;;42.13;30.10;;;3.00;99.90;;;;;;2075071;28;20025;-67
2024/03/07 04:42:32;;;;;;;42.25;29.27;;;3.00;99.90;;;;;;2068138;28;20041;-67
2024/03/07 04:43:33;;;;;;;41.97;29.58;;;3.00;99.90;;;;;;2069507;28;20058;-67
2024/03/07 04:44:35;;;;;;;41.65;29.58;;;3.00;99.90;;;;;;2068870;28;20114;-67
2024/03/07 04:45:36;;;;;;;47.97;32.35;;;3.00;99.90;;;;;;2070412;28;20026;-68
2024/03/07 04:46:42;;;;;;;41.83;29.30;;;3.00;99.90;;;;;;2079049;28;20363;-68
2024/03/07 04:47:46;;;;;;;44.35;29.90;;;3.00;99.90;;;;;;2076893;28;20052;-67
2024/03/07 04:48:47;;;;;;;41.55;30.83;;;3.00;99.90;;;;;;2077616;28;20454;-67
2024/03/07 04:49:50;;;;;;;46.10;31.00;;;3.00;99.90;;;;;;2078168;28;20446;-67
2024/03/07 04:50:50;;;;;;;41.95;29.42;;;2.90;99.90;;;;;;2076183;28;20144;-66
2024/03/07 04:51:52;;;;;;;37.35;28.73;;;2.90;99.90;;;;;;2076866;28;20033;-68
2024/03/07 04:52:55;;;;;;;39.80;28.88;;;2.90;99.90;;;;;;2071100;28;20129;-67
2024/03/07 04:53:56;;;;;;;39.95;29.20;;;2.90;99.90;;;;;;2069289;28;20034;-67
2024/03/07 04:54:56;;;;;;;40.70;30.13;;;2.90;99.90;;;;;;2076896;28;20101;-68
2024/03/07 04:55:57;;;;;;;43.00;29.90;;;2.90;99.90;;;;;;2069958;28;20029;-71
2024/03/07 04:56:57;;;;;;;41.78;31.27;;;2.90;99.90;;;;;;2069453;28;20068;-71
2024/03/07 04:57:58;;;;;;;44.08;33.17;;;2.90;99.90;;;;;;2076823;28;20033;-71
2024/03/07 04:58:58;;;;;;;40.28;29.50;;;2.90;99.90;;;;;;2075980;28;20037;-71
2024/03/07 05:00:13;;;;;;;39.03;28.75;;;2.90;99.90;;;;;;2076012;28;20609;-71
2024/03/07 05:01:13;;;;;;;41.70;30.10;;;2.90;99.90;;;;;;2076532;28;20105;-71
2024/03/07 05:02:15;;;;;;;43.45;31.05;;;2.90;99.90;;;;;;2074789;28;20018;-71
2024/03/07 05:03:18;;;;;;;41.30;28.42;;;2.80;99.90;;;;;;2081311;28;20076;-71
2024/03/07 05:04:19;;;;;;;39.15;29.70;;;2.80;99.90;;;;;;2080501;28;20048;-71
2024/03/07 05:05:22;;;;;;;48.17;34.08;;;2.90;99.90;;;;;;2077859;28;20056;-71
2024/03/07 05:06:23;;;;;;;46.60;35.30;;;2.80;99.90;;;;;;2071909;28;20556;-67
2024/03/07 05:07:23;;;;;;;45.08;32.47;;;2.80;99.90;;;;;;2072616;28;20137;-68
2024/03/07 05:08:24;;;;;;;39.90;30.38;;;2.90;99.90;;;;;;2076257;28;20463;-67
2024/03/07 05:09:28;;;;;;;38.55;28.48;;;2.90;99.90;;;;;;2077585;28;20026;-68
2024/03/07 05:10:30;;;;;;;45.40;32.63;;;2.80;99.90;;;;;;2074127;28;20030;-67
2024/03/07 05:11:31;;;;;;;48.58;35.25;;;2.90;99.90;;;;;;2075706;28;20058;-67
2024/03/07 05:12:32;;;;;;;51.65;34.88;;;2.80;99.90;;;;;;2077064;28;20109;-68
2024/03/07 05:13:33;;;;;;;50.05;35.22;;;2.90;99.90;;;;;;2076966;28;20029;-67
2024/03/07 05:14:33;;;;;;;48.60;35.60;;;2.90;99.90;;;;;;2075396;28;20027;-67
2024/03/07 05:15:34;;;;;;;46.55;35.08;;;2.80;99.90;;;;;;2068560;28;20437;-67